createdAt,value
2022-08-11T00:00:21.526Z,15.43
2022-08-11T00:01:21.516Z,15.43
2022-08-11T00:02:21.540Z,15.43
2022-08-11T00:03:21.541Z,15.43
2022-08-11T00:04:21.486Z,15.42
2022-08-11T00:05:21.524Z,15.39
2022-08-11T00:06:21.469Z,15.39
2022-08-11T00:07:21.460Z,15.39
2022-08-11T00:08:21.450Z,15.36
2022-08-11T00:09:21.455Z,15.36
2022-08-11T00:10:21.434Z,15.35
2022-08-11T00:11:21.449Z,15.36
2022-08-11T00:12:21.401Z,15.33
2022-08-11T00:13:21.390Z,15.33
2022-08-11T00:14:21.381Z,15.31
2022-08-11T00:15:21.370Z,15.33
2022-08-11T00:16:21.361Z,15.31
2022-08-11T00:17:21.392Z,15.31
2022-08-11T00:18:21.333Z,15.31
2022-08-11T00:20:14.101Z,15.31
2022-08-11T00:20:22.313Z,15.33
2022-08-11T00:22:01.850Z,15.30
2022-08-11T00:22:22.336Z,15.30
2022-08-11T00:23:21.283Z,15.30
2022-08-11T00:24:21.274Z,15.28
2022-08-11T00:25:21.271Z,15.27
2022-08-11T00:26:21.256Z,15.27
2022-08-11T00:27:21.246Z,15.27
2022-08-11T00:28:21.265Z,15.27
2022-08-11T00:29:21.227Z,15.24
2022-08-11T00:30:21.205Z,15.24
2022-08-11T00:31:21.209Z,15.23
2022-08-11T00:32:21.186Z,15.23
2022-08-11T00:33:21.177Z,15.23
2022-08-11T00:34:22.208Z,15.23
2022-08-11T00:35:55.833Z,15.23
2022-08-11T00:36:25.483Z,15.23
2022-08-11T00:37:21.138Z,15.24
2022-08-11T00:38:21.129Z,15.26
2022-08-11T00:39:21.155Z,15.26
2022-08-11T00:40:22.139Z,15.26
2022-08-11T00:41:21.100Z,15.27
2022-08-11T00:42:21.086Z,15.28
2022-08-11T00:43:21.275Z,15.28
2022-08-11T00:44:21.064Z,15.30
2022-08-11T00:45:21.050Z,15.33
2022-08-11T00:46:21.083Z,15.33
2022-08-11T00:47:21.031Z,15.36
2022-08-11T00:48:21.022Z,15.39
2022-08-11T00:49:21.012Z,15.39
2022-08-11T00:50:21.002Z,15.41
2022-08-11T00:51:20.992Z,15.42
2022-08-11T00:52:21.012Z,15.41
2022-08-11T00:53:20.974Z,15.41
2022-08-11T00:54:20.954Z,15.43
2022-08-11T00:55:20.954Z,15.45
2022-08-11T00:56:20.935Z,15.45
2022-08-11T00:57:37.531Z,15.46
2022-08-11T00:58:22.690Z,15.45
2022-08-11T00:59:35.356Z,15.43
2022-08-11T01:00:21.886Z,15.43
2022-08-11T01:01:21.012Z,15.43
2022-08-11T01:02:20.876Z,15.45
2022-08-11T01:03:20.866Z,15.46
2022-08-11T01:04:20.896Z,15.49
2022-08-11T01:05:20.846Z,15.49
2022-08-11T01:06:20.827Z,15.51
2022-08-11T01:08:01.045Z,15.52
2022-08-11T01:08:21.808Z,15.52
2022-08-11T01:09:22.795Z,15.54
2022-08-11T01:10:20.839Z,15.56
2022-08-11T01:11:20.780Z,15.56
2022-08-11T01:12:20.770Z,15.56
2022-08-11T01:13:20.768Z,15.57
2022-08-11T01:14:34.038Z,15.57
2022-08-11T01:15:21.773Z,15.59
2022-08-11T01:16:20.720Z,15.56
2022-08-11T01:17:20.723Z,15.56
2022-08-11T01:18:20.703Z,15.56
2022-08-11T01:19:20.703Z,15.52
2022-08-11T01:20:46.150Z,15.51
2022-08-11T01:21:21.711Z,15.46
2022-08-11T01:22:20.661Z,15.45
2022-08-11T01:23:20.653Z,15.43
2022-08-11T01:24:20.652Z,15.41
2022-08-11T01:25:20.634Z,15.36
2022-08-11T01:26:20.625Z,15.35
2022-08-11T01:27:20.678Z,15.33
2022-08-11T01:28:20.595Z,15.30
2022-08-11T01:29:20.596Z,15.28
2022-08-11T01:30:20.575Z,15.27
2022-08-11T01:31:23.391Z,15.24
2022-08-11T01:32:20.558Z,15.23
2022-08-11T01:33:20.596Z,15.21
2022-08-11T01:34:20.536Z,15.23
2022-08-11T01:35:20.527Z,15.21
2022-08-11T01:36:20.519Z,15.20
2022-08-11T01:37:20.508Z,15.21
2022-08-11T01:38:20.498Z,15.23
2022-08-11T01:39:20.642Z,15.23
2022-08-11T01:40:20.478Z,15.26
2022-08-11T01:41:20.461Z,15.26
2022-08-11T01:42:20.458Z,15.27
2022-08-11T01:43:20.451Z,15.27
2022-08-11T01:44:20.439Z,15.28
2022-08-11T01:45:20.451Z,15.30
2022-08-11T01:46:20.411Z,15.31
2022-08-11T01:47:20.400Z,15.31
2022-08-11T01:48:20.395Z,15.31
2022-08-11T01:49:29.133Z,15.30
2022-08-11T01:50:21.411Z,15.33
2022-08-11T01:51:20.361Z,15.33
2022-08-11T01:52:20.345Z,15.33
2022-08-11T01:53:21.333Z,15.33
2022-08-11T01:54:20.323Z,15.35
2022-08-11T01:55:20.323Z,15.33
2022-08-11T01:56:20.355Z,15.33
2022-08-11T01:57:20.295Z,15.33
2022-08-11T01:58:20.284Z,15.33
2022-08-11T01:59:21.276Z,15.35
2022-08-11T02:00:20.263Z,15.35
2022-08-11T02:01:20.320Z,15.35
2022-08-11T02:02:21.386Z,15.36
2022-08-11T02:03:20.235Z,15.36
2022-08-11T02:04:20.220Z,15.36
2022-08-11T02:05:20.208Z,15.38
2022-08-11T02:06:20.196Z,15.39
2022-08-11T02:07:20.200Z,15.39
2022-08-11T02:08:20.227Z,15.38
2022-08-11T02:09:21.173Z,15.39
2022-08-11T02:10:20.159Z,15.42
2022-08-11T02:11:20.150Z,15.42
2022-08-11T02:12:20.140Z,15.45
2022-08-11T02:13:35.364Z,15.46
2022-08-11T02:14:21.151Z,15.46
2022-08-11T02:15:20.109Z,15.48
2022-08-11T02:16:20.090Z,15.49
2022-08-11T02:17:20.080Z,15.49
2022-08-11T02:18:20.071Z,15.52
2022-08-11T02:19:20.071Z,15.52
2022-08-11T02:20:20.083Z,15.56
2022-08-11T02:21:20.042Z,15.57
2022-08-11T02:22:20.039Z,15.57
2022-08-11T02:24:00.514Z,15.57
2022-08-11T02:24:21.011Z,15.57
2022-08-11T02:25:20.005Z,15.57
2022-08-11T02:26:20.024Z,15.59
2022-08-11T02:27:19.984Z,15.59
2022-08-11T02:28:19.972Z,15.59
2022-08-11T02:29:19.971Z,15.60
2022-08-11T02:30:19.946Z,15.59
2022-08-11T02:32:24.895Z,15.59
2022-08-11T02:32:28.784Z,15.60
2022-08-11T02:33:20.918Z,15.60
2022-08-11T02:34:19.905Z,15.61
2022-08-11T02:35:19.908Z,15.60
2022-08-11T02:36:19.887Z,15.61
2022-08-11T02:37:23.708Z,15.60
2022-08-11T02:38:19.910Z,15.61
2022-08-11T02:39:19.916Z,15.61
2022-08-11T02:40:19.846Z,15.59
2022-08-11T02:41:19.842Z,15.60
2022-08-11T02:42:31.601Z,15.60
2022-08-11T02:43:20.868Z,15.61
2022-08-11T02:44:19.801Z,15.60
2022-08-11T02:45:19.790Z,15.59
2022-08-11T02:46:19.781Z,15.60
2022-08-11T02:47:19.772Z,15.59
2022-08-11T02:48:19.761Z,15.60
2022-08-11T02:49:19.791Z,15.60
2022-08-11T02:50:19.742Z,15.59
2022-08-11T02:51:22.033Z,15.61
2022-08-11T02:52:19.664Z,15.59
2022-08-11T02:53:19.654Z,15.59
2022-08-11T02:54:19.643Z,15.59
2022-08-11T02:55:44.478Z,15.59
2022-08-11T02:56:20.620Z,15.59
2022-08-11T02:57:19.624Z,15.59
2022-08-11T02:58:19.925Z,15.59
2022-08-11T02:59:20.595Z,15.59
2022-08-11T03:00:19.576Z,15.57
2022-08-11T03:01:19.661Z,15.57
2022-08-11T03:02:19.555Z,15.56
2022-08-11T03:03:19.556Z,15.56
2022-08-11T03:04:19.537Z,15.52
2022-08-11T03:05:19.528Z,15.54
2022-08-11T03:06:19.517Z,15.54
2022-08-11T03:07:28.069Z,15.52
2022-08-11T03:08:20.499Z,15.51
2022-08-11T03:09:19.495Z,15.49
2022-08-11T03:10:19.479Z,15.48
2022-08-11T03:11:19.473Z,15.46
2022-08-11T03:12:19.460Z,15.46
2022-08-11T03:13:19.483Z,15.46
2022-08-11T03:14:19.439Z,15.43
2022-08-11T03:15:19.421Z,15.43
2022-08-11T03:16:19.410Z,15.42
2022-08-11T03:17:19.401Z,15.41
2022-08-11T03:18:19.391Z,15.38
2022-08-11T03:19:19.420Z,15.38
2022-08-11T03:20:19.373Z,15.36
2022-08-11T03:21:19.881Z,15.35
2022-08-11T03:22:19.356Z,15.33
2022-08-11T03:23:20.471Z,15.31
2022-08-11T03:24:19.333Z,15.30
2022-08-11T03:25:19.354Z,15.28
2022-08-11T03:26:19.317Z,15.27
2022-08-11T03:27:19.295Z,15.26
2022-08-11T03:28:19.286Z,15.23
2022-08-11T03:29:24.921Z,15.21
2022-08-11T03:30:20.304Z,15.20
2022-08-11T03:31:19.255Z,15.19
2022-08-11T03:32:19.247Z,15.15
2022-08-11T03:33:19.238Z,15.13
2022-08-11T03:34:19.228Z,15.12
2022-08-11T03:35:21.372Z,15.12
2022-08-11T03:36:19.248Z,15.12
2022-08-11T03:37:19.188Z,15.11
2022-08-11T03:38:19.178Z,15.09
2022-08-11T03:39:19.208Z,15.09
2022-08-11T03:40:19.166Z,15.08
2022-08-11T03:42:03.543Z,15.09
2022-08-11T03:42:20.179Z,15.08
2022-08-11T03:43:19.129Z,15.06
2022-08-11T03:44:19.120Z,15.06
2022-08-11T03:45:19.114Z,15.08
2022-08-11T03:46:19.102Z,15.06
2022-08-11T03:47:19.088Z,15.08
2022-08-11T03:48:19.122Z,15.06
2022-08-11T03:49:19.074Z,15.06
2022-08-11T03:50:19.061Z,15.08
2022-08-11T03:51:19.048Z,15.09
2022-08-11T03:52:19.042Z,15.11
2022-08-11T03:53:19.022Z,15.11
2022-08-11T03:54:19.043Z,15.12
2022-08-11T03:55:19.004Z,15.15
2022-08-11T03:56:18.994Z,15.19
2022-08-11T03:57:18.986Z,15.20
2022-08-11T03:58:18.964Z,15.23
2022-08-11T03:59:18.966Z,15.23
2022-08-11T04:00:18.998Z,15.28
2022-08-11T04:01:18.992Z,15.30
2022-08-11T04:02:18.926Z,15.33
2022-08-11T04:03:18.917Z,15.36
2022-08-11T04:04:18.907Z,15.36
2022-08-11T04:05:18.897Z,15.41
2022-08-11T04:06:18.916Z,15.42
2022-08-11T04:07:18.878Z,15.45
2022-08-11T04:08:18.868Z,15.46
2022-08-11T04:09:18.858Z,15.49
2022-08-11T04:10:18.850Z,15.49
2022-08-11T04:11:18.839Z,15.51
2022-08-11T04:12:35.937Z,15.54
2022-08-11T04:13:19.809Z,15.56
2022-08-11T04:14:18.808Z,15.56
2022-08-11T04:15:18.794Z,15.57
2022-08-11T04:16:18.781Z,15.57
2022-08-11T04:17:18.772Z,15.59
2022-08-11T04:18:18.791Z,15.60
2022-08-11T04:19:18.751Z,15.61
2022-08-11T04:20:18.742Z,15.64
2022-08-11T04:21:18.733Z,15.66
2022-08-11T04:22:18.723Z,15.67
2022-08-11T04:24:37.024Z,15.72
2022-08-11T04:24:37.686Z,15.76
2022-08-11T04:25:19.687Z,15.79
2022-08-11T04:26:19.133Z,15.84
2022-08-11T04:27:19.218Z,15.85
2022-08-11T04:28:28.613Z,15.85
2022-08-11T04:29:19.654Z,15.88
2022-08-11T04:30:18.666Z,15.92
2022-08-11T04:31:51.076Z,15.92
2022-08-11T04:32:19.626Z,15.94
2022-08-11T04:33:18.608Z,15.93
2022-08-11T04:34:18.596Z,15.96
2022-08-11T04:35:18.578Z,15.96
2022-08-11T04:36:18.607Z,15.97
2022-08-11T04:37:18.558Z,15.97
2022-08-11T04:38:18.557Z,15.97
2022-08-11T04:39:18.579Z,15.97
2022-08-11T04:40:18.529Z,15.94
2022-08-11T04:41:18.518Z,15.96
2022-08-11T04:42:18.549Z,15.97
2022-08-11T04:43:18.503Z,16.00
2022-08-11T04:44:18.490Z,16.00
2022-08-11T04:45:18.480Z,16.04
2022-08-11T04:46:18.470Z,16.04
2022-08-11T04:47:18.467Z,16.07
2022-08-11T04:48:18.481Z,16.07
2022-08-11T04:49:25.568Z,16.09
2022-08-11T04:50:19.431Z,16.12
2022-08-11T04:51:18.420Z,16.12
2022-08-11T04:52:18.410Z,16.15
2022-08-11T04:53:18.395Z,16.16
2022-08-11T04:54:18.433Z,16.18
2022-08-11T04:55:18.375Z,16.20
2022-08-11T04:56:18.365Z,16.22
2022-08-11T04:57:18.353Z,16.20
2022-08-11T04:58:18.346Z,16.20
2022-08-11T04:59:18.335Z,16.22
2022-08-11T05:00:18.356Z,16.25
2022-08-11T05:01:18.334Z,16.27
2022-08-11T05:02:18.355Z,16.30
2022-08-11T05:03:18.286Z,16.30
2022-08-11T05:04:18.286Z,16.33
2022-08-11T05:05:18.266Z,16.34
2022-08-11T05:06:18.297Z,16.37
2022-08-11T05:07:18.252Z,16.40
2022-08-11T05:08:21.887Z,16.42
2022-08-11T05:09:19.230Z,16.48
2022-08-11T05:10:18.220Z,16.48
2022-08-11T05:11:18.207Z,16.50
2022-08-11T05:12:18.230Z,16.53
2022-08-11T05:13:18.189Z,16.59
2022-08-11T05:14:18.181Z,16.63
2022-08-11T05:15:18.170Z,16.65
2022-08-11T05:16:18.163Z,16.67
2022-08-11T05:17:18.141Z,16.71
2022-08-11T05:18:18.177Z,16.77
2022-08-11T05:19:18.123Z,16.83
2022-08-11T05:20:18.123Z,16.93
2022-08-11T05:21:18.103Z,17.06
2022-08-11T05:22:18.095Z,17.04
2022-08-11T05:23:18.085Z,17.00
2022-08-11T05:24:18.111Z,17.00
2022-08-11T05:26:25.523Z,17.03
2022-08-11T05:26:46.568Z,16.99
2022-08-11T05:27:19.044Z,16.99
2022-08-11T05:28:18.034Z,17.00
2022-08-11T05:29:20.006Z,17.00
2022-08-11T05:30:18.047Z,16.99
2022-08-11T05:31:17.999Z,17.07
2022-08-11T05:32:17.997Z,17.13
2022-08-11T05:33:17.984Z,17.22
2022-08-11T05:34:17.969Z,17.28
2022-08-11T05:36:00.240Z,17.53
2022-08-11T05:36:18.988Z,17.51
2022-08-11T05:37:26.861Z,17.48
2022-08-11T05:38:18.929Z,17.47
2022-08-11T05:39:17.961Z,17.47
2022-08-11T05:40:17.909Z,17.84
2022-08-11T05:41:17.899Z,17.82
2022-08-11T05:42:29.438Z,17.82
2022-08-11T05:43:18.871Z,17.84
2022-08-11T05:44:20.867Z,17.79
2022-08-11T05:45:17.852Z,17.95
2022-08-11T05:46:17.852Z,17.88
2022-08-11T05:47:17.842Z,17.84
2022-08-11T05:48:17.865Z,17.92
2022-08-11T05:49:17.813Z,17.84
2022-08-11T05:50:17.803Z,17.87
2022-08-11T05:51:21.107Z,17.81
2022-08-11T05:52:18.783Z,17.73
2022-08-11T05:53:17.773Z,17.69
2022-08-11T05:54:28.694Z,17.63
2022-08-11T05:55:18.754Z,17.78
2022-08-11T05:56:17.756Z,18.06
2022-08-11T05:57:48.589Z,18.34
2022-08-11T05:58:18.727Z,18.09
2022-08-11T05:59:17.716Z,17.87
2022-08-11T06:00:17.737Z,18.06
2022-08-11T06:01:17.727Z,18.02
2022-08-11T06:02:17.690Z,17.81
2022-08-11T06:03:17.688Z,17.73
2022-08-11T06:04:17.671Z,17.73
2022-08-11T06:05:19.418Z,17.57
2022-08-11T06:06:17.682Z,17.51
2022-08-11T06:07:17.643Z,17.84
2022-08-11T06:08:17.621Z,18.13
2022-08-11T06:09:17.611Z,18.28
2022-08-11T06:10:17.601Z,18.31
2022-08-11T06:11:17.591Z,18.42
2022-08-11T06:12:17.622Z,18.57
2022-08-11T06:13:17.577Z,18.67
2022-08-11T06:14:17.562Z,18.76
2022-08-11T06:15:17.543Z,18.83
2022-08-11T06:16:17.543Z,18.84
2022-08-11T06:17:17.534Z,18.72
2022-08-11T06:18:17.555Z,18.43
2022-08-11T06:19:17.503Z,18.29
2022-08-11T06:20:17.496Z,18.39
2022-08-11T06:21:17.484Z,18.44
2022-08-11T06:22:17.477Z,18.49
2022-08-11T06:23:17.465Z,18.58
2022-08-11T06:24:17.498Z,18.67
2022-08-11T06:25:17.439Z,18.77
2022-08-11T06:26:17.437Z,18.84
2022-08-11T06:27:17.429Z,18.91
2022-08-11T06:28:20.784Z,18.97
2022-08-11T06:29:17.398Z,19.01
2022-08-11T06:30:17.419Z,19.13
2022-08-11T06:31:17.379Z,19.18
2022-08-11T06:32:17.369Z,19.24
2022-08-11T06:33:17.358Z,19.32
2022-08-11T06:34:27.132Z,19.38
2022-08-11T06:35:18.369Z,19.39
2022-08-11T06:36:17.330Z,19.40
2022-08-11T06:37:17.311Z,19.46
2022-08-11T06:38:17.311Z,19.53
2022-08-11T06:39:17.322Z,19.61
2022-08-11T06:40:17.284Z,19.68
2022-08-11T06:41:17.312Z,19.73
2022-08-11T06:42:17.266Z,19.78
2022-08-11T06:43:17.253Z,19.84
2022-08-11T06:44:17.291Z,19.90
2022-08-11T06:45:17.233Z,19.95
2022-08-11T06:46:28.445Z,19.98
2022-08-11T06:47:18.254Z,20.05
2022-08-11T06:48:17.206Z,20.08
2022-08-11T06:49:17.195Z,20.16
2022-08-11T06:50:17.184Z,20.23
2022-08-11T06:51:17.174Z,20.23
2022-08-11T06:52:34.547Z,20.24
2022-08-11T06:53:18.188Z,20.23
2022-08-11T06:54:17.137Z,20.27
2022-08-11T06:55:58.097Z,20.33
2022-08-11T06:56:18.117Z,20.42
2022-08-11T06:57:32.385Z,20.49
2022-08-11T06:58:18.158Z,20.61
2022-08-11T06:59:17.142Z,20.69
2022-08-11T07:00:17.087Z,20.76
2022-08-11T07:01:17.116Z,20.84
2022-08-11T07:02:17.060Z,20.86
2022-08-11T07:03:17.052Z,20.93
2022-08-11T07:04:17.042Z,20.98
2022-08-11T07:05:17.436Z,21.06
2022-08-11T07:06:17.022Z,21.17
2022-08-11T07:07:17.013Z,21.29
2022-08-11T07:08:34.157Z,21.36
2022-08-11T07:09:17.995Z,21.46
2022-08-11T07:10:16.983Z,21.53
2022-08-11T07:11:16.997Z,21.57
2022-08-11T07:12:16.965Z,21.66
2022-08-11T07:13:44.919Z,21.74
2022-08-11T07:14:17.948Z,21.79
2022-08-11T07:15:16.917Z,21.83
2022-08-11T07:16:16.914Z,21.90
2022-08-11T07:17:16.936Z,21.94
2022-08-11T07:18:16.898Z,21.91
2022-08-11T07:19:16.877Z,21.95
2022-08-11T07:20:16.877Z,21.92
2022-08-11T07:22:00.393Z,21.94
2022-08-11T07:22:17.888Z,21.98
2022-08-11T07:23:16.839Z,22.04
2022-08-11T07:24:16.830Z,22.13
2022-08-11T07:25:16.827Z,22.22
2022-08-11T07:26:16.809Z,22.34
2022-08-11T07:27:16.801Z,22.47
2022-08-11T07:28:16.821Z,22.54
2022-08-11T07:29:16.772Z,22.68
2022-08-11T07:30:16.770Z,22.75
2022-08-11T07:31:16.753Z,22.84
2022-08-11T07:32:16.743Z,22.89
2022-08-11T07:34:05.245Z,22.89
2022-08-11T07:34:18.377Z,22.89
2022-08-11T07:35:16.723Z,22.94
2022-08-11T07:36:16.704Z,23.04
2022-08-11T07:37:16.697Z,23.11
2022-08-11T07:38:22.080Z,23.17
2022-08-11T07:39:17.746Z,23.23
2022-08-11T07:40:16.704Z,23.27
2022-08-11T07:41:16.656Z,23.35
2022-08-11T07:42:16.647Z,23.49
2022-08-11T07:43:16.637Z,23.57
2022-08-11T07:44:16.629Z,23.61
2022-08-11T07:45:16.619Z,23.71
2022-08-11T07:46:16.651Z,23.87
2022-08-11T07:47:16.600Z,23.92
2022-08-11T07:48:16.581Z,23.97
2022-08-11T07:49:16.582Z,23.95
2022-08-11T07:50:16.561Z,24.00
2022-08-11T07:51:16.552Z,24.10
2022-08-11T07:52:16.570Z,24.10
2022-08-11T07:53:16.529Z,24.16
2022-08-11T07:54:17.460Z,24.19
2022-08-11T07:55:16.511Z,23.76
2022-08-11T07:56:17.387Z,23.68
2022-08-11T07:58:13.980Z,23.80
2022-08-11T07:58:20.212Z,23.89
2022-08-11T07:59:16.474Z,24.04
2022-08-11T08:00:16.458Z,24.17
2022-08-11T08:01:21.562Z,24.31
2022-08-11T08:02:17.475Z,24.39
2022-08-11T08:03:16.478Z,24.45
2022-08-11T08:04:16.411Z,24.34
2022-08-11T08:05:16.410Z,23.95
2022-08-11T08:06:22.281Z,23.89
2022-08-11T08:07:17.389Z,23.77
2022-08-11T08:08:17.363Z,23.71
2022-08-11T08:09:16.398Z,23.85
2022-08-11T08:10:16.347Z,24.05
2022-08-11T08:11:16.350Z,24.17
2022-08-11T08:12:16.350Z,24.04
2022-08-11T08:13:16.322Z,24.24
2022-08-11T08:14:16.314Z,24.41
2022-08-11T08:15:16.346Z,24.67
2022-08-11T08:16:16.294Z,24.90
2022-08-11T08:17:16.297Z,25.09
2022-08-11T08:18:25.954Z,25.31
2022-08-11T08:19:17.254Z,25.43
2022-08-11T08:20:16.255Z,25.53
2022-08-11T08:21:16.276Z,25.69
2022-08-11T08:22:37.966Z,25.79
2022-08-11T08:23:17.225Z,25.84
2022-08-11T08:24:16.218Z,25.79
2022-08-11T08:25:16.206Z,25.69
2022-08-11T08:26:16.999Z,25.69
2022-08-11T08:27:16.219Z,25.62
2022-08-11T08:28:16.180Z,25.57
2022-08-11T08:29:16.160Z,25.69
2022-08-11T08:30:16.149Z,25.86
2022-08-11T08:31:16.144Z,25.91
2022-08-11T08:32:16.130Z,26.05
2022-08-11T08:33:16.151Z,26.25
2022-08-11T08:34:16.109Z,26.36
2022-08-11T08:35:16.096Z,26.22
2022-08-11T08:36:16.083Z,25.94
2022-08-11T08:37:47.178Z,25.97
2022-08-11T08:38:17.104Z,26.17
2022-08-11T08:39:16.094Z,26.32
2022-08-11T08:40:16.049Z,26.43
2022-08-11T08:41:16.620Z,26.43
2022-08-11T08:42:16.025Z,26.28
2022-08-11T08:43:16.015Z,26.29
2022-08-11T08:44:37.125Z,26.46
2022-08-11T08:45:16.995Z,26.44
2022-08-11T08:46:15.977Z,26.57
2022-08-11T08:47:16.874Z,26.57
2022-08-11T08:48:16.965Z,26.65
2022-08-11T08:49:15.959Z,26.68
2022-08-11T08:50:16.690Z,26.79
2022-08-11T08:51:16.756Z,26.91
2022-08-11T08:52:29.473Z,27.01
2022-08-11T08:53:16.920Z,27.09
2022-08-11T08:54:15.901Z,27.14
2022-08-11T08:55:15.891Z,27.21
2022-08-11T08:56:15.922Z,27.11
2022-08-11T08:57:15.904Z,26.67
2022-08-11T08:58:15.864Z,26.67
2022-08-11T08:59:15.862Z,26.42
2022-08-11T09:00:20.755Z,26.52
2022-08-11T09:01:16.947Z,26.68
2022-08-11T09:02:15.824Z,26.87
2022-08-11T09:03:39.887Z,27.06
2022-08-11T09:04:20.775Z,27.13
2022-08-11T09:05:15.807Z,27.24
2022-08-11T09:06:15.775Z,27.14
2022-08-11T09:07:15.819Z,27.23
2022-08-11T09:08:15.756Z,27.32
2022-08-11T09:09:15.758Z,27.41
2022-08-11T09:10:15.738Z,27.43
2022-08-11T09:11:15.744Z,27.47
2022-08-11T09:12:15.718Z,27.51
2022-08-11T09:13:15.749Z,27.64
2022-08-11T09:14:15.707Z,27.61
2022-08-11T09:15:19.622Z,27.54
2022-08-11T09:16:15.681Z,27.59
2022-08-11T09:17:15.674Z,27.61
2022-08-11T09:18:15.653Z,27.61
2022-08-11T09:19:15.684Z,27.64
2022-08-11T09:20:15.635Z,27.70
2022-08-11T09:21:15.625Z,27.67
2022-08-11T09:22:16.615Z,27.64
2022-08-11T09:24:25.024Z,27.73
2022-08-11T09:25:16.595Z,27.79
2022-08-11T09:26:15.577Z,27.29
2022-08-11T09:27:15.566Z,26.94
2022-08-11T09:28:15.558Z,26.87
2022-08-11T09:29:15.549Z,26.28
2022-08-11T09:30:15.579Z,26.39
2022-08-11T09:31:15.531Z,26.58
2022-08-11T09:32:15.520Z,26.81
2022-08-11T09:33:15.520Z,27.06
2022-08-11T09:34:15.499Z,26.98
2022-08-11T09:35:15.490Z,27.04
2022-08-11T09:36:15.511Z,27.16
2022-08-11T09:37:54.760Z,27.33
2022-08-11T09:38:16.452Z,27.46
2022-08-11T09:39:15.485Z,27.51
2022-08-11T09:40:15.443Z,27.73
2022-08-11T09:41:15.424Z,27.77
2022-08-11T09:42:16.432Z,27.71
2022-08-11T09:43:15.414Z,27.76
2022-08-11T09:44:15.395Z,27.80
2022-08-11T09:45:15.385Z,27.76
2022-08-11T09:46:15.377Z,27.77
2022-08-11T09:47:15.366Z,27.91
2022-08-11T09:48:15.394Z,27.88
2022-08-11T09:49:15.352Z,27.94
2022-08-11T09:50:15.338Z,28.06
2022-08-11T09:51:15.331Z,28.09
2022-08-11T09:52:15.329Z,28.26
2022-08-11T09:53:36.681Z,28.29
2022-08-11T09:54:16.332Z,28.36
2022-08-11T09:55:15.292Z,28.53
2022-08-11T09:56:15.272Z,28.63
2022-08-11T09:57:15.271Z,28.69
2022-08-11T09:58:35.226Z,28.62
2022-08-11T09:59:16.244Z,28.53
2022-08-11T10:00:15.488Z,28.48
2022-08-11T10:01:15.292Z,28.47
2022-08-11T10:02:15.225Z,28.56
2022-08-11T10:03:15.205Z,28.48
2022-08-11T10:04:15.194Z,28.44
2022-08-11T10:05:15.197Z,28.54
2022-08-11T10:06:15.206Z,28.59
2022-08-11T10:07:15.167Z,28.53
2022-08-11T10:08:15.157Z,28.50
2022-08-11T10:09:15.148Z,28.48
2022-08-11T10:10:15.137Z,27.95
2022-08-11T10:11:15.128Z,27.89
2022-08-11T10:12:15.163Z,27.82
2022-08-11T10:14:31.785Z,27.71
2022-08-11T10:14:33.178Z,27.74
2022-08-11T10:15:16.079Z,27.79
2022-08-11T10:16:16.824Z,27.92
2022-08-11T10:17:15.414Z,28.10
2022-08-11T10:18:15.302Z,28.25
2022-08-11T10:19:15.099Z,28.44
2022-08-11T10:20:15.092Z,28.68
2022-08-11T10:21:15.066Z,28.80
2022-08-11T10:22:15.083Z,28.96
2022-08-11T10:23:15.056Z,29.08
2022-08-11T10:24:15.096Z,28.93
2022-08-11T10:25:15.177Z,28.90
2022-08-11T10:26:16.006Z,28.69
2022-08-11T10:27:15.056Z,28.26
2022-08-11T10:28:30.710Z,27.62
2022-08-11T10:29:16.127Z,27.51
2022-08-11T10:30:15.017Z,27.73
2022-08-11T10:31:14.975Z,27.92
2022-08-11T10:32:15.009Z,28.19
2022-08-11T10:33:36.372Z,28.41
2022-08-11T10:34:15.949Z,28.56
2022-08-11T10:35:14.979Z,28.78
2022-08-11T10:36:16.348Z,28.96
2022-08-11T10:37:15.354Z,29.08
2022-08-11T10:38:14.958Z,29.19
2022-08-11T10:39:14.955Z,29.20
2022-08-11T10:40:15.001Z,29.25
2022-08-11T10:41:14.931Z,29.25
2022-08-11T10:42:29.995Z,29.23
2022-08-11T10:43:17.681Z,29.35
2022-08-11T10:44:15.853Z,29.44
2022-08-11T10:45:14.824Z,29.49
2022-08-11T10:46:14.886Z,29.56
2022-08-11T10:47:14.856Z,29.62
2022-08-11T10:48:15.672Z,29.65
2022-08-11T10:49:14.808Z,29.74
2022-08-11T10:50:14.818Z,29.82
2022-08-11T10:51:14.787Z,30.00
2022-08-11T10:52:14.788Z,29.93
2022-08-11T10:53:14.820Z,29.86
2022-08-11T10:54:14.760Z,29.78
2022-08-11T10:55:14.769Z,29.72
2022-08-11T10:56:14.722Z,29.77
2022-08-11T10:57:14.749Z,29.60
2022-08-11T10:58:14.701Z,29.56
2022-08-11T10:59:14.761Z,29.66
2022-08-11T11:00:14.685Z,29.72
2022-08-11T11:01:14.885Z,29.71
2022-08-11T11:02:14.654Z,29.57
2022-08-11T11:03:22.710Z,29.47
2022-08-11T11:04:15.679Z,29.40
2022-08-11T11:05:14.643Z,29.52
2022-08-11T11:06:28.870Z,29.52
2022-08-11T11:07:15.636Z,29.62
2022-08-11T11:08:14.627Z,29.57
2022-08-11T11:09:14.616Z,29.11
2022-08-11T11:10:14.617Z,28.85
2022-08-11T11:11:18.234Z,29.07
2022-08-11T11:12:14.609Z,29.37
2022-08-11T11:13:14.579Z,29.56
2022-08-11T11:14:14.549Z,29.71
2022-08-11T11:15:16.132Z,29.55
2022-08-11T11:16:14.612Z,29.53
2022-08-11T11:17:14.535Z,29.41
2022-08-11T11:18:14.532Z,29.41
2022-08-11T11:19:14.527Z,29.45
2022-08-11T11:20:36.224Z,29.59
2022-08-11T11:21:15.536Z,29.77
2022-08-11T11:22:14.495Z,29.94
2022-08-11T11:23:14.473Z,30.08
2022-08-11T11:24:14.435Z,30.16
2022-08-11T11:25:14.463Z,30.11
2022-08-11T11:26:14.441Z,30.12
2022-08-11T11:27:14.489Z,29.97
2022-08-11T11:28:14.427Z,29.82
2022-08-11T11:29:20.422Z,29.59
2022-08-11T11:30:14.403Z,29.47
2022-08-11T11:31:15.845Z,29.50
2022-08-11T11:32:14.378Z,29.66
2022-08-11T11:33:14.430Z,29.78
2022-08-11T11:34:14.440Z,29.78
2022-08-11T11:35:14.341Z,29.74
2022-08-11T11:36:14.360Z,29.65
2022-08-11T11:37:14.319Z,29.60
2022-08-11T11:38:14.384Z,29.60
2022-08-11T11:39:14.478Z,29.66
2022-08-11T11:40:14.416Z,29.66
2022-08-11T11:41:14.293Z,29.71
2022-08-11T11:42:14.264Z,29.81
2022-08-11T11:43:14.275Z,29.84
2022-08-11T11:44:14.264Z,29.86
2022-08-11T11:45:23.374Z,29.86
2022-08-11T11:46:15.237Z,29.45
2022-08-11T11:47:14.225Z,28.81
2022-08-11T11:48:14.198Z,28.81
2022-08-11T11:49:17.200Z,29.03
2022-08-11T11:50:15.268Z,29.13
2022-08-11T11:51:14.237Z,29.26
2022-08-11T11:52:14.186Z,29.43
2022-08-11T11:53:14.168Z,29.35
2022-08-11T11:54:14.187Z,29.37
2022-08-11T11:55:14.193Z,29.01
2022-08-11T11:56:14.131Z,28.90
2022-08-11T11:57:14.133Z,29.04
2022-08-11T11:58:18.586Z,29.28
2022-08-11T11:59:14.678Z,29.47
2022-08-11T12:00:14.123Z,29.62
2022-08-11T12:01:14.069Z,29.72
2022-08-11T12:02:14.074Z,29.84
2022-08-11T12:03:14.226Z,29.94
2022-08-11T12:04:14.036Z,29.72
2022-08-11T12:05:14.015Z,29.81
2022-08-11T12:06:14.190Z,29.99
2022-08-11T12:07:14.019Z,29.96
2022-08-11T12:08:14.027Z,30.00
2022-08-11T12:09:14.007Z,29.75
2022-08-11T12:10:14.082Z,29.70
2022-08-11T12:11:14.040Z,29.84
2022-08-11T12:12:13.962Z,29.56
2022-08-11T12:13:14.041Z,29.59
2022-08-11T12:14:13.941Z,29.71
2022-08-11T12:15:13.981Z,29.65
2022-08-11T12:16:34.668Z,29.59
2022-08-11T12:17:14.884Z,29.49
2022-08-11T12:18:13.940Z,29.04
2022-08-11T12:19:14.013Z,28.87
2022-08-11T12:20:30.914Z,29.18
2022-08-11T12:21:14.959Z,29.41
2022-08-11T12:22:13.905Z,29.65
2022-08-11T12:23:14.683Z,29.50
2022-08-11T12:24:13.835Z,29.37
2022-08-11T12:25:13.878Z,29.53
2022-08-11T12:26:26.994Z,29.71
2022-08-11T12:27:17.689Z,29.77
2022-08-11T12:28:13.889Z,29.79
2022-08-11T12:29:13.784Z,29.55
2022-08-11T12:30:13.818Z,29.59
2022-08-11T12:31:13.792Z,29.65
2022-08-11T12:32:13.785Z,29.62
2022-08-11T12:33:13.780Z,29.65
2022-08-11T12:34:14.761Z,29.70
2022-08-11T12:35:13.742Z,29.72
2022-08-11T12:36:13.737Z,29.55
2022-08-11T12:37:14.038Z,29.55
2022-08-11T12:38:13.716Z,29.65
2022-08-11T12:39:24.224Z,29.55
2022-08-11T12:40:42.495Z,29.31
2022-08-11T12:41:16.472Z,29.52
2022-08-11T12:42:13.675Z,29.68
2022-08-11T12:43:20.868Z,29.74
2022-08-11T12:44:14.677Z,29.82
2022-08-11T12:45:21.928Z,29.82
2022-08-11T12:46:14.599Z,29.81
2022-08-11T12:47:13.658Z,29.81
2022-08-11T12:48:58.320Z,29.89
2022-08-11T12:49:14.632Z,29.96
2022-08-11T12:50:22.950Z,30.09
2022-08-11T12:51:14.577Z,30.09
2022-08-11T12:52:15.714Z,30.05
2022-08-11T12:53:13.552Z,30.05